createdAt,value
2018-10-21T00:00:25.604Z,17.33
2018-10-21T00:02:53.954Z,19.17
2018-10-21T00:05:22.236Z,17.63
2018-10-21T00:07:50.546Z,18.00
2018-10-21T00:10:18.867Z,19.30
2018-10-21T00:12:47.206Z,19.63
2018-10-21T00:15:15.628Z,19.50
2018-10-21T00:17:44.614Z,19.23
2018-10-21T00:20:12.939Z,19.80
2018-10-21T00:22:41.272Z,19.70
2018-10-21T00:25:09.596Z,18.90
2018-10-21T00:27:37.940Z,19.33
2018-10-21T00:30:06.409Z,20.33
2018-10-21T00:32:40.226Z,20.43
2018-10-21T00:35:08.900Z,20.47
2018-10-21T00:37:37.389Z,19.87
2018-10-21T00:40:06.108Z,19.80
2018-10-21T00:42:34.431Z,20.67
2018-10-21T00:45:02.796Z,20.47
2018-10-21T00:47:31.059Z,20.83
2018-10-21T00:49:59.482Z,20.73
2018-10-21T00:52:28.265Z,20.93
2018-10-21T00:54:56.585Z,21.57
2018-10-21T00:57:24.958Z,20.13
2018-10-21T00:59:53.262Z,21.30
2018-10-21T01:02:21.584Z,21.83
2018-10-21T01:04:49.844Z,21.53
2018-10-21T01:07:18.166Z,20.73
2018-10-21T01:09:46.434Z,20.70
2018-10-21T01:12:14.767Z,19.80
2018-10-21T01:14:43.095Z,20.07
2018-10-21T01:17:12.173Z,19.50
2018-10-21T01:19:40.579Z,20.97
2018-10-21T01:22:08.913Z,21.40
2018-10-21T01:24:37.222Z,21.73
2018-10-21T01:27:06.186Z,21.73
2018-10-21T01:29:34.515Z,20.80
2018-10-21T01:32:02.848Z,21.43
2018-10-21T01:34:31.380Z,22.40
2018-10-21T01:36:59.834Z,22.23
2018-10-21T01:39:38.410Z,23.20
2018-10-21T01:42:06.771Z,23.33
2018-10-21T01:44:35.097Z,23.20
2018-10-21T01:47:03.440Z,22.80
2018-10-21T01:49:31.784Z,23.60
2018-10-21T01:52:00.127Z,23.53
2018-10-21T01:54:28.458Z,23.70
2018-10-21T01:56:56.835Z,23.80
2018-10-21T01:59:25.132Z,23.93
2018-10-21T02:01:53.485Z,24.87
2018-10-21T02:04:21.820Z,24.23
2018-10-21T02:06:50.241Z,23.80
2018-10-21T02:09:18.611Z,24.03
2018-10-21T02:11:46.983Z,25.03
2018-10-21T02:14:15.324Z,24.10
2018-10-21T02:16:43.645Z,24.57
2018-10-21T02:19:11.994Z,24.37
2018-10-21T02:21:40.370Z,25.43
2018-10-21T02:24:08.838Z,25.57
2018-10-21T02:26:37.252Z,25.60
2018-10-21T02:29:06.127Z,24.93
2018-10-21T02:31:34.439Z,25.10
2018-10-21T02:34:02.805Z,24.37
2018-10-21T02:36:31.144Z,24.40
2018-10-21T02:38:59.610Z,23.73
2018-10-21T02:41:42.149Z,24.03
2018-10-21T02:44:11.561Z,24.57
2018-10-21T02:46:40.151Z,25.10
2018-10-21T02:49:09.343Z,26.43
2018-10-21T02:51:37.866Z,26.60
2018-10-21T02:54:07.503Z,25.90
2018-10-21T02:56:35.685Z,27.27
2018-10-21T02:59:03.848Z,26.70
2018-10-21T03:01:32.001Z,26.53
2018-10-21T03:04:00.189Z,24.43
2018-10-21T03:06:28.351Z,25.97
2018-10-21T03:08:56.543Z,25.70
2018-10-21T03:11:24.655Z,24.77
2018-10-21T03:13:53.046Z,25.10
2018-10-21T03:16:21.183Z,25.60
2018-10-21T03:18:49.324Z,24.73
2018-10-21T03:21:17.861Z,24.43
2018-10-21T03:23:45.942Z,25.03
2018-10-21T03:26:14.104Z,24.43
2018-10-21T03:28:42.502Z,24.60
2018-10-21T03:31:10.672Z,24.33
2018-10-21T03:33:38.866Z,25.30
2018-10-21T03:36:07.246Z,26.10
2018-10-21T03:38:35.511Z,26.73
2018-10-21T03:41:03.957Z,26.90
2018-10-21T03:43:32.124Z,27.67
2018-10-21T03:46:00.802Z,27.77
2018-10-21T03:48:28.917Z,30.40
2018-10-21T03:50:57.095Z,29.47
2018-10-21T03:53:25.709Z,29.90
2018-10-21T03:55:54.111Z,28.90
2018-10-21T03:58:22.527Z,29.57
2018-10-21T04:00:51.057Z,31.87
2018-10-21T04:03:19.220Z,33.93
2018-10-21T04:05:47.392Z,31.57
2018-10-21T04:08:15.561Z,32.17
2018-10-21T04:10:43.702Z,32.50
2018-10-21T04:13:11.850Z,31.63
2018-10-21T04:15:40.238Z,30.47
2018-10-21T04:18:08.410Z,29.00
2018-10-21T04:20:36.570Z,31.47
2018-10-21T04:23:05.183Z,29.23
2018-10-21T04:25:34.794Z,29.10
2018-10-21T04:28:03.690Z,30.10
2018-10-21T04:30:32.991Z,28.10
2018-10-21T04:33:07.276Z,29.33
2018-10-21T04:35:35.745Z,29.57
2018-10-21T04:38:25.246Z,31.43
2018-10-21T04:40:53.489Z,32.77
2018-10-21T04:43:21.996Z,33.47
2018-10-21T04:45:50.146Z,32.73
2018-10-21T04:48:18.302Z,32.30
2018-10-21T04:50:46.626Z,33.63
2018-10-21T04:53:14.854Z,36.47
2018-10-21T04:55:43.309Z,35.50
2018-10-21T04:58:11.533Z,37.03
2018-10-21T05:00:39.660Z,34.30
2018-10-21T05:03:08.230Z,33.93
2018-10-21T05:05:36.387Z,33.80
2018-10-21T05:08:04.723Z,34.20
2018-10-21T05:10:36.715Z,35.43
2018-10-21T05:13:06.029Z,35.10
2018-10-21T05:15:35.605Z,34.17
2018-10-21T05:18:03.718Z,35.17
2018-10-21T05:20:31.876Z,34.37
2018-10-21T05:23:00.042Z,36.33
2018-10-21T05:25:28.449Z,36.43
2018-10-21T05:27:56.659Z,36.87
2018-10-21T05:30:24.803Z,36.37
2018-10-21T05:32:53.370Z,37.70
2018-10-21T05:35:22.383Z,36.20
2018-10-21T05:37:50.790Z,33.83
2018-10-21T05:40:20.120Z,34.53
2018-10-21T05:42:48.567Z,33.67
2018-10-21T05:45:16.734Z,35.77
2018-10-21T05:47:45.162Z,36.57
2018-10-21T05:50:14.626Z,38.33
2018-10-21T05:52:43.211Z,39.27
2018-10-21T05:55:12.507Z,40.20
2018-10-21T05:57:40.701Z,39.63
2018-10-21T06:00:12.082Z,40.63
2018-10-21T06:02:40.259Z,38.33
2018-10-21T06:05:19.435Z,38.93
2018-10-21T06:07:48.015Z,39.77
2018-10-21T06:10:16.284Z,38.50
2018-10-21T06:12:44.331Z,38.10
2018-10-21T06:15:12.507Z,38.03
2018-10-21T06:17:41.062Z,38.23
2018-10-21T06:20:15.326Z,38.23
2018-10-21T06:22:45.027Z,37.60
2018-10-21T06:25:13.460Z,37.97
2018-10-21T06:27:41.672Z,37.83
2018-10-21T06:30:11.083Z,38.97
2018-10-21T06:32:39.498Z,38.07
2018-10-21T06:35:08.138Z,38.83
2018-10-21T06:37:36.310Z,38.87
2018-10-21T06:40:05.555Z,37.93
2018-10-21T06:42:33.946Z,39.13
2018-10-21T06:45:02.174Z,39.00
2018-10-21T06:47:30.754Z,38.53
2018-10-21T06:49:58.924Z,37.70
2018-10-21T06:52:27.199Z,37.20
2018-10-21T06:54:55.327Z,37.57
2018-10-21T06:57:23.672Z,37.50
2018-10-21T06:59:51.680Z,36.53
2018-10-21T07:02:20.227Z,37.50
2018-10-21T07:04:48.409Z,37.80
2018-10-21T07:07:16.622Z,37.50
2018-10-21T07:09:44.766Z,38.37
2018-10-21T07:12:12.923Z,37.83
2018-10-21T07:14:41.322Z,37.13
2018-10-21T07:17:09.487Z,35.50
2018-10-21T07:19:37.873Z,37.33
2018-10-21T07:22:06.094Z,38.00
2018-10-21T07:24:34.226Z,37.07
2018-10-21T07:27:02.409Z,37.67
2018-10-21T07:29:30.615Z,37.60
2018-10-21T07:31:59.238Z,36.97
2018-10-21T07:34:27.715Z,36.07
2018-10-21T07:36:56.235Z,35.13
2018-10-21T07:39:24.390Z,33.60
2018-10-21T07:41:52.563Z,36.33
2018-10-21T07:44:20.915Z,35.40
2018-10-21T07:46:49.379Z,35.17
2018-10-21T07:49:17.893Z,34.17
2018-10-21T07:51:45.994Z,35.43
2018-10-21T07:54:14.155Z,34.73
2018-10-21T07:56:42.291Z,34.47
2018-10-21T07:59:10.458Z,33.17
2018-10-21T08:01:38.599Z,32.53
2018-10-21T08:04:06.816Z,32.87
2018-10-21T08:06:46.476Z,33.43
2018-10-21T08:09:14.651Z,31.33
2018-10-21T08:11:43.083Z,30.87
2018-10-21T08:14:11.938Z,32.70
2018-10-21T08:16:40.322Z,29.97
2018-10-21T08:19:08.519Z,30.23
2018-10-21T08:21:36.953Z,30.17
2018-10-21T08:24:05.178Z,29.17
2018-10-21T08:26:33.566Z,29.20
2018-10-21T08:29:01.774Z,29.23
2018-10-21T08:31:29.951Z,29.20
2018-10-21T08:33:58.383Z,28.53
2018-10-21T08:36:26.531Z,28.80
2018-10-21T08:38:54.706Z,28.80
2018-10-21T08:41:23.148Z,28.13
2018-10-21T08:43:51.403Z,27.83
2018-10-21T08:46:20.047Z,26.30
2018-10-21T08:48:48.168Z,28.77
2018-10-21T08:51:16.327Z,27.77
2018-10-21T08:53:44.744Z,27.43
2018-10-21T08:56:12.886Z,27.07
2018-10-21T08:58:41.070Z,25.73
2018-10-21T09:01:09.504Z,26.53
2018-10-21T09:03:37.837Z,25.90
2018-10-21T09:06:05.995Z,27.30
2018-10-21T09:08:34.175Z,25.53
2018-10-21T09:11:02.711Z,26.33
2018-10-21T09:13:31.347Z,26.10
2018-10-21T09:15:59.527Z,26.17
2018-10-21T09:18:27.766Z,25.53
2018-10-21T09:20:55.938Z,25.67
2018-10-21T09:23:24.102Z,25.80
2018-10-21T09:25:52.500Z,25.70
2018-10-21T09:28:20.784Z,26.70
2018-10-21T09:30:49.510Z,25.23
2018-10-21T09:33:18.393Z,26.43
2018-10-21T09:35:46.562Z,25.40
2018-10-21T09:38:14.743Z,24.00
2018-10-21T09:40:42.926Z,25.87
2018-10-21T09:43:11.126Z,25.63
2018-10-21T09:45:39.527Z,24.73
2018-10-21T09:48:07.706Z,25.33
2018-10-21T09:50:36.156Z,24.27
2018-10-21T09:53:04.659Z,24.40
2018-10-21T09:55:33.169Z,25.77
2018-10-21T09:58:01.637Z,25.23
2018-10-21T10:01:38.408Z,24.50
2018-10-21T10:04:06.802Z,23.97
2018-10-21T10:06:35.147Z,25.17
2018-10-21T10:09:03.967Z,25.27
2018-10-21T10:11:32.325Z,24.73
2018-10-21T10:14:00.696Z,24.40
2018-10-21T10:16:30.141Z,25.27
2018-10-21T10:18:58.663Z,24.27
2018-10-21T10:21:26.822Z,23.30
2018-10-21T10:23:58.970Z,23.93
2018-10-21T10:26:27.308Z,22.23
2018-10-21T10:28:55.927Z,24.10
2018-10-21T10:33:57.240Z,23.10
2018-10-21T10:36:25.686Z,22.90
2018-10-21T10:38:54.039Z,23.03
2018-10-21T10:41:22.417Z,22.27
2018-10-21T10:43:51.169Z,22.33
2018-10-21T10:46:19.742Z,22.40
2018-10-21T10:48:47.929Z,21.43
2018-10-21T10:51:16.398Z,21.97
2018-10-21T10:53:44.835Z,21.23
2018-10-21T10:56:13.176Z,22.47
2018-10-21T10:58:41.521Z,21.87
2018-10-21T11:01:09.957Z,21.90
2018-10-21T11:03:38.273Z,20.43
2018-10-21T11:06:06.646Z,21.70
2018-10-21T11:08:35.104Z,21.13
2018-10-21T11:11:03.509Z,21.33
2018-10-21T11:13:31.942Z,21.63
2018-10-21T11:16:00.411Z,21.27
2018-10-21T11:18:28.725Z,20.67
2018-10-21T11:20:57.097Z,21.23
2018-10-21T11:23:25.418Z,21.30
2018-10-21T11:25:53.748Z,21.37
2018-10-21T11:28:22.095Z,21.07
2018-10-21T11:30:50.460Z,21.90
2018-10-21T11:33:18.867Z,21.70
2018-10-21T11:35:47.240Z,20.07
2018-10-21T11:38:15.635Z,19.50
2018-10-21T11:40:44.002Z,19.73
2018-10-21T11:43:12.525Z,20.83
2018-10-21T11:45:40.862Z,21.27
2018-10-21T11:48:09.136Z,18.83
2018-10-21T11:50:37.476Z,18.87
2018-10-21T11:53:06.147Z,18.47
2018-10-21T11:55:38.270Z,17.87
2018-10-21T11:58:08.320Z,17.90
2018-10-21T12:00:36.667Z,15.73
2018-10-21T12:03:05.072Z,16.67
2018-10-21T12:05:33.419Z,16.93
2018-10-21T12:08:01.829Z,17.30
2018-10-21T12:10:30.203Z,16.17
2018-10-21T12:12:58.574Z,15.53
2018-10-21T12:15:26.903Z,17.50
2018-10-21T12:17:55.265Z,17.33
2018-10-21T12:20:23.637Z,16.70
2018-10-21T12:22:52.096Z,16.93
2018-10-21T12:25:20.497Z,16.17
2018-10-21T12:27:48.740Z,16.37
2018-10-21T12:30:17.080Z,15.87
2018-10-21T12:32:45.419Z,16.97
2018-10-21T12:35:13.827Z,17.83
2018-10-21T12:37:42.334Z,17.80
2018-10-21T12:40:11.096Z,17.27
2018-10-21T12:42:39.875Z,13.63
2018-10-21T12:45:09.914Z,14.10
2018-10-21T12:47:38.482Z,14.23
2018-10-21T12:50:07.290Z,14.97
2018-10-21T12:52:35.614Z,12.17
2018-10-21T12:55:04.347Z,12.17
2018-10-21T12:57:32.804Z,11.53
2018-10-21T13:00:01.172Z,12.07
2018-10-21T13:02:29.558Z,10.73
2018-10-21T13:04:57.920Z,11.50
2018-10-21T13:07:26.279Z,12.90
2018-10-21T13:09:54.619Z,12.23
2018-10-21T13:12:22.964Z,12.47
2018-10-21T13:14:51.310Z,11.37
2018-10-21T13:17:19.648Z,11.67
2018-10-21T13:19:48.054Z,11.80
2018-10-21T13:22:16.422Z,12.43
2018-10-21T13:24:44.750Z,10.43
2018-10-21T13:27:13.066Z,10.43
2018-10-21T13:29:41.443Z,10.00
2018-10-21T13:32:09.768Z,9.87
2018-10-21T13:34:38.181Z,7.27
2018-10-21T13:37:06.528Z,5.97
2018-10-21T13:39:35.044Z,6.53
2018-10-21T13:42:03.452Z,7.30
2018-10-21T13:44:31.798Z,8.20
2018-10-21T13:47:00.128Z,8.27
2018-10-21T13:49:28.473Z,8.90
2018-10-21T13:51:56.967Z,8.67
2018-10-21T13:54:25.316Z,8.33
2018-10-21T13:56:53.650Z,9.67
2018-10-21T13:59:22.000Z,9.03
2018-10-21T14:01:56.977Z,9.30
2018-10-21T14:04:25.335Z,9.87
2018-10-21T14:06:53.735Z,9.83
2018-10-21T14:09:22.052Z,9.80
2018-10-21T14:11:50.376Z,9.90
2018-10-21T14:14:18.727Z,10.07
2018-10-21T14:16:47.066Z,10.73
2018-10-21T14:19:15.357Z,11.03
2018-10-21T14:21:43.715Z,10.90
2018-10-21T14:24:12.330Z,10.60
2018-10-21T14:26:40.598Z,11.87
2018-10-21T14:29:08.961Z,10.93
2018-10-21T14:31:37.440Z,11.63
2018-10-21T14:34:05.901Z,12.10
2018-10-21T14:36:34.275Z,11.73
2018-10-21T14:39:03.197Z,11.67
2018-10-21T14:41:31.567Z,11.47
2018-10-21T14:43:59.931Z,11.20
2018-10-21T14:46:28.295Z,11.43
2018-10-21T14:48:56.662Z,11.27
2018-10-21T14:51:25.028Z,10.47
2018-10-21T14:53:53.362Z,10.70
2018-10-21T14:56:21.774Z,11.10
2018-10-21T14:58:50.170Z,11.17
2018-10-21T15:01:18.527Z,11.23
2018-10-21T15:03:46.987Z,11.07
2018-10-21T15:06:30.662Z,10.27
2018-10-21T15:08:59.001Z,12.00
2018-10-21T15:11:27.462Z,10.33
2018-10-21T15:13:55.734Z,10.73
2018-10-21T15:16:23.922Z,10.67
2018-10-21T15:18:52.346Z,10.83
2018-10-21T15:21:20.617Z,11.57
2018-10-21T15:26:26.367Z,10.73
2018-10-21T15:28:54.982Z,11.13
2018-10-21T15:31:23.251Z,10.50
2018-10-21T15:33:51.943Z,11.10
2018-10-21T15:36:20.548Z,10.57
2018-10-21T15:38:48.878Z,9.93
2018-10-21T15:41:17.529Z,10.17
2018-10-21T15:43:46.389Z,10.63
2018-10-21T15:46:14.920Z,10.00
2018-10-21T15:48:43.208Z,10.00
2018-10-21T15:51:11.924Z,9.80
2018-10-21T15:53:42.581Z,11.20
2018-10-21T15:56:12.124Z,9.87
2018-10-21T15:58:40.579Z,8.40
2018-10-21T16:01:09.145Z,9.27
2018-10-21T16:03:37.565Z,8.33
2018-10-21T16:06:06.099Z,8.27
2018-10-21T16:08:34.645Z,7.77
2018-10-21T16:11:03.120Z,7.90
2018-10-21T16:13:31.564Z,8.87
2018-10-21T16:16:00.064Z,8.23
2018-10-21T16:18:28.479Z,9.07
2018-10-21T16:20:57.890Z,8.40
2018-10-21T16:23:26.343Z,9.40
2018-10-21T16:25:54.950Z,9.30
2018-10-21T16:29:26.500Z,10.10
2018-10-21T16:31:55.401Z,10.03
2018-10-21T16:34:24.702Z,9.43
2018-10-21T16:36:53.214Z,9.17
2018-10-21T16:39:21.739Z,9.97
2018-10-21T16:41:50.106Z,11.37
2018-10-21T16:44:18.500Z,10.90
2018-10-21T16:46:46.947Z,10.30
2018-10-21T16:49:15.384Z,11.50
2018-10-21T16:51:43.901Z,11.67
2018-10-21T16:54:12.380Z,11.00
2018-10-21T16:56:42.540Z,11.00
2018-10-21T16:59:10.897Z,12.60
2018-10-21T17:01:39.115Z,11.50
2018-10-21T17:04:07.356Z,12.33
2018-10-21T17:06:35.639Z,12.17
2018-10-21T17:09:05.992Z,12.10
2018-10-21T17:11:34.521Z,13.93
2018-10-21T17:14:02.909Z,15.97
2018-10-21T17:16:32.515Z,16.93
2018-10-21T17:19:01.079Z,17.00
2018-10-21T17:21:29.651Z,15.63
2018-10-21T17:23:58.155Z,18.77
2018-10-21T17:26:26.940Z,18.93
2018-10-21T17:28:55.337Z,16.83
2018-10-21T17:31:23.664Z,16.27
2018-10-21T17:33:52.074Z,15.10
2018-10-21T17:36:20.707Z,14.70
2018-10-21T17:38:49.429Z,12.27
2018-10-21T17:41:18.506Z,13.03
2018-10-21T17:43:47.111Z,12.87
2018-10-21T17:46:15.837Z,12.17
2018-10-21T17:48:44.325Z,11.67
2018-10-21T17:51:12.851Z,11.90
2018-10-21T17:53:41.249Z,10.60
2018-10-21T17:56:10.850Z,11.13
2018-10-21T17:58:39.507Z,10.30
2018-10-21T18:01:07.845Z,10.70
2018-10-21T18:03:37.356Z,9.80
2018-10-21T18:06:05.815Z,10.03
2018-10-21T18:08:34.256Z,9.87
2018-10-21T18:11:02.647Z,9.80
2018-10-21T18:13:31.086Z,9.90
2018-10-21T18:15:59.484Z,10.03
2018-10-21T18:18:27.969Z,10.20
2018-10-21T18:20:56.455Z,9.70
2018-10-21T18:23:24.949Z,9.23
2018-10-21T18:25:53.369Z,9.17
2018-10-21T18:28:21.843Z,9.30
2018-10-21T18:30:50.266Z,8.83
2018-10-21T18:33:18.667Z,9.10
2018-10-21T18:35:47.147Z,9.77
2018-10-21T18:38:15.655Z,9.80
2018-10-21T18:40:44.253Z,9.27
2018-10-21T18:43:12.595Z,10.10
2018-10-21T18:45:41.040Z,9.40
2018-10-21T18:48:09.522Z,9.70
2018-10-21T18:50:38.035Z,9.57
2018-10-21T18:53:06.626Z,9.63
2018-10-21T18:55:35.305Z,9.70
2018-10-21T18:58:03.715Z,10.17
2018-10-21T19:00:32.111Z,10.57
2018-10-21T19:03:00.459Z,11.23
2018-10-21T19:05:28.735Z,11.10
2018-10-21T19:07:57.034Z,11.60
2018-10-21T19:10:25.625Z,11.20
2018-10-21T19:13:00.051Z,11.13
2018-10-21T19:15:22.654Z,11.97
2018-10-21T19:17:51.231Z,13.47
2018-10-21T19:20:19.881Z,14.50
2018-10-21T19:22:48.205Z,14.30
2018-10-21T19:25:17.495Z,14.70
2018-10-21T19:27:46.332Z,12.80
2018-10-21T19:30:15.412Z,12.47
2018-10-21T19:32:43.967Z,12.43
2018-10-21T19:35:13.557Z,13.20
2018-10-21T19:37:41.875Z,13.13
2018-10-21T19:40:12.133Z,14.53
2018-10-21T19:42:40.944Z,15.13
2018-10-21T19:45:10.574Z,14.90
2018-10-21T19:47:39.567Z,13.67
2018-10-21T19:50:09.275Z,14.63
2018-10-21T19:52:37.705Z,13.90
2018-10-21T19:55:06.195Z,13.73
2018-10-21T19:57:34.708Z,13.37
2018-10-21T20:00:03.176Z,14.37
2018-10-21T20:02:31.652Z,14.53
2018-10-21T20:05:00.369Z,13.90
2018-10-21T20:07:28.865Z,15.47
2018-10-21T20:09:57.340Z,15.57
2018-10-21T20:12:25.627Z,13.30
2018-10-21T20:14:54.027Z,13.93
2018-10-21T20:17:22.372Z,14.13
2018-10-21T20:19:50.775Z,14.17
2018-10-21T20:22:19.186Z,14.50
2018-10-21T20:24:47.620Z,15.20
2018-10-21T20:34:13.930Z,14.73
2018-10-21T20:36:42.134Z,14.07
2018-10-21T20:39:10.883Z,13.97
2018-10-21T20:41:39.544Z,15.63
2018-10-21T20:44:08.250Z,15.67
2018-10-21T20:46:36.615Z,15.33
2018-10-21T20:49:05.052Z,16.37
2018-10-21T20:51:33.593Z,15.50
2018-10-21T20:54:01.742Z,17.10
2018-10-21T20:56:30.018Z,16.97
2018-10-21T20:58:58.299Z,16.90
2018-10-21T21:01:27.575Z,17.07
2018-10-21T21:03:55.841Z,17.37
2018-10-21T21:06:24.387Z,18.13
2018-10-21T21:08:52.615Z,16.27
2018-10-21T21:11:21.089Z,15.37
2018-10-21T21:13:49.350Z,14.60
2018-10-21T21:16:18.695Z,15.13
2018-10-21T21:18:47.405Z,16.17
2018-10-21T21:21:15.938Z,16.10
2018-10-21T21:23:44.300Z,16.20
2018-10-21T21:26:12.743Z,17.63
2018-10-21T21:28:41.163Z,16.43
2018-10-21T21:31:09.616Z,17.10
2018-10-21T21:33:38.103Z,16.83
2018-10-21T21:36:06.575Z,16.43
2018-10-21T21:38:34.903Z,16.27
2018-10-21T21:41:03.506Z,16.27
2018-10-21T21:43:31.971Z,16.83
2018-10-21T21:46:00.387Z,18.17
2018-10-21T21:48:28.840Z,17.73
2018-10-21T21:50:57.255Z,19.33
2018-10-21T21:53:25.685Z,19.70
2018-10-21T21:55:54.141Z,19.33
2018-10-21T21:58:22.508Z,20.43
2018-10-21T22:00:50.907Z,20.07
2018-10-21T22:03:19.238Z,18.20
2018-10-21T22:05:47.715Z,19.23
2018-10-21T22:08:16.103Z,18.70
2018-10-21T22:10:44.769Z,20.07
2018-10-21T22:13:13.139Z,19.23
2018-10-21T22:15:41.580Z,20.03
2018-10-21T22:18:10.037Z,20.40
2018-10-21T22:20:38.330Z,20.50
2018-10-21T22:23:06.668Z,19.83
2018-10-21T22:25:35.083Z,19.30
2018-10-21T22:28:03.501Z,20.10
2018-10-21T22:30:31.868Z,20.13
2018-10-21T22:33:00.239Z,20.20
2018-10-21T22:35:28.631Z,20.07
2018-10-21T22:37:57.191Z,21.00
2018-10-21T22:40:25.573Z,21.27
2018-10-21T22:42:53.923Z,21.93
2018-10-21T22:45:22.347Z,20.67
2018-10-21T22:47:50.794Z,21.20
2018-10-21T22:50:19.177Z,21.77
2018-10-21T22:52:47.543Z,20.77
2018-10-21T22:55:15.945Z,20.20
2018-10-21T22:57:44.280Z,20.40
2018-10-21T23:00:12.712Z,20.23
2018-10-21T23:02:42.226Z,21.50
2018-10-21T23:05:10.792Z,20.93
2018-10-21T23:07:39.328Z,20.50
2018-10-21T23:10:07.813Z,21.17
2018-10-21T23:12:36.362Z,21.50
2018-10-21T23:15:05.129Z,21.23
2018-10-21T23:17:33.605Z,21.93
2018-10-21T23:20:01.965Z,21.60
2018-10-21T23:22:30.530Z,20.50
2018-10-21T23:24:58.896Z,20.50
2018-10-21T23:27:27.271Z,20.77
2018-10-21T23:29:55.673Z,20.60
2018-10-21T23:39:21.555Z,21.37
2018-10-21T23:41:49.778Z,20.87
2018-10-21T23:44:18.072Z,21.03
2018-10-21T23:46:46.551Z,21.33
2018-10-21T23:49:15.003Z,21.17
2018-10-21T23:51:43.295Z,22.50
2018-10-21T23:54:11.591Z,19.87
2018-10-21T23:56:39.910Z,20.77
2018-10-21T23:59:09.127Z,19.77
